createdAt,value
2019-06-15T00:00:36.162Z,61.27
2019-06-15T00:01:40.372Z,61.17
2019-06-15T00:03:02.082Z,61.16
2019-06-15T00:04:06.303Z,61.12
2019-06-15T00:05:09.902Z,61.27
2019-06-15T00:06:14.054Z,61.39
2019-06-15T00:07:17.625Z,61.49
2019-06-15T00:08:21.788Z,61.45
2019-06-15T00:09:25.335Z,61.57
2019-06-15T00:10:29.480Z,61.54
2019-06-15T00:11:33.017Z,61.60
2019-06-15T00:12:37.029Z,61.54
2019-06-15T00:13:40.509Z,61.56
2019-06-15T00:14:44.358Z,61.47
2019-06-15T00:15:47.894Z,61.52
2019-06-15T00:16:52.019Z,61.59
2019-06-15T00:17:55.478Z,61.63
2019-06-15T00:18:59.555Z,61.48
2019-06-15T00:20:04.577Z,61.57
2019-06-15T00:21:08.699Z,61.74
2019-06-15T00:22:12.217Z,62.14
2019-06-15T00:23:17.433Z,62.26
2019-06-15T00:24:34.559Z,62.34
2019-06-15T00:25:26.777Z,62.45
2019-06-15T00:26:30.318Z,62.43
2019-06-15T00:27:34.520Z,62.26
2019-06-15T00:28:38.094Z,62.21
2019-06-15T00:29:42.267Z,62.25
2019-06-15T00:30:45.793Z,62.27
2019-06-15T00:31:49.902Z,62.34
2019-06-15T00:32:53.367Z,62.52
2019-06-15T00:33:57.492Z,62.54
2019-06-15T00:35:00.986Z,62.38
2019-06-15T00:36:05.517Z,62.50
2019-06-15T00:37:08.970Z,62.74
2019-06-15T00:38:13.069Z,62.69
2019-06-15T00:39:16.712Z,62.68
2019-06-15T00:40:20.975Z,62.57
2019-06-15T00:41:24.498Z,62.53
2019-06-15T00:42:28.607Z,62.55
2019-06-15T00:43:32.236Z,62.39
2019-06-15T00:44:36.275Z,62.25
2019-06-15T00:45:39.725Z,62.16
2019-06-15T00:46:43.928Z,62.04
2019-06-15T00:47:47.444Z,61.97
2019-06-15T00:48:52.654Z,62.02
2019-06-15T00:49:56.241Z,62.24
2019-06-15T00:51:00.383Z,62.24
2019-06-15T00:52:03.921Z,62.36
2019-06-15T00:53:07.966Z,62.31
2019-06-15T00:54:11.616Z,62.30
2019-06-15T00:55:15.788Z,62.25
2019-06-15T00:56:19.300Z,62.44
2019-06-15T00:57:23.491Z,62.51
2019-06-15T00:58:26.935Z,62.50
2019-06-15T00:59:31.080Z,62.38
2019-06-15T01:00:34.658Z,62.17
2019-06-15T01:01:38.797Z,62.10
2019-06-15T01:02:42.229Z,62.01
2019-06-15T01:03:46.268Z,61.99
2019-06-15T01:04:49.782Z,62.12
2019-06-15T01:05:53.877Z,62.56
2019-06-15T01:06:57.359Z,62.64
2019-06-15T01:08:01.466Z,62.50
2019-06-15T01:09:06.855Z,62.44
2019-06-15T01:10:11.368Z,62.47
2019-06-15T01:11:14.817Z,62.48
2019-06-15T01:12:19.005Z,62.42
2019-06-15T01:13:22.521Z,62.39
2019-06-15T01:14:26.684Z,62.43
2019-06-15T01:15:30.334Z,62.48
2019-06-15T01:16:34.364Z,62.59
2019-06-15T01:17:37.997Z,62.65
2019-06-15T01:18:42.188Z,62.66
2019-06-15T01:19:45.705Z,62.68
2019-06-15T01:20:50.685Z,62.60
2019-06-15T01:21:54.268Z,62.44
2019-06-15T01:22:58.414Z,62.40
2019-06-15T01:24:01.958Z,62.35
2019-06-15T01:25:11.053Z,62.30
2019-06-15T01:26:14.941Z,62.49
2019-06-15T01:27:19.226Z,62.93
2019-06-15T01:28:22.948Z,62.87
2019-06-15T01:29:27.168Z,62.75
2019-06-15T01:30:30.855Z,62.77
2019-06-15T01:31:35.274Z,62.77
2019-06-15T01:32:38.975Z,62.69
2019-06-15T01:33:43.162Z,62.58
2019-06-15T01:34:46.646Z,62.37
2019-06-15T01:35:50.835Z,62.24
2019-06-15T01:36:54.602Z,62.17
2019-06-15T01:37:58.722Z,62.09
2019-06-15T01:39:02.237Z,62.11
2019-06-15T01:40:08.681Z,62.10
2019-06-15T01:41:12.317Z,62.25
2019-06-15T01:42:16.163Z,62.20
2019-06-15T01:43:19.614Z,62.10
2019-06-15T01:44:23.763Z,62.23
2019-06-15T01:45:27.568Z,62.35
2019-06-15T01:46:31.702Z,62.47
2019-06-15T01:47:35.516Z,62.45
2019-06-15T01:48:39.642Z,62.55
2019-06-15T01:49:43.240Z,62.59
2019-06-15T01:50:47.570Z,62.61
2019-06-15T01:51:51.119Z,62.47
2019-06-15T01:52:55.228Z,62.59
2019-06-15T01:53:58.818Z,62.57
2019-06-15T01:55:02.998Z,62.49
2019-06-15T01:56:06.525Z,62.52
2019-06-15T01:57:10.673Z,62.50
2019-06-15T01:58:14.194Z,62.40
2019-06-15T01:59:18.317Z,62.47
2019-06-15T02:00:24.864Z,62.40
2019-06-15T02:01:28.989Z,62.46
2019-06-15T02:02:32.503Z,62.80
2019-06-15T02:03:36.698Z,63.02
2019-06-15T02:04:40.293Z,63.35
2019-06-15T02:05:44.329Z,63.73
2019-06-15T02:06:47.933Z,64.04
2019-06-15T02:07:52.251Z,64.16
2019-06-15T02:08:55.932Z,64.10
2019-06-15T02:10:00.088Z,63.90
2019-06-15T02:11:03.619Z,63.72
2019-06-15T02:12:07.830Z,63.67
2019-06-15T02:13:11.420Z,63.61
2019-06-15T02:14:15.789Z,63.63
2019-06-15T02:15:19.313Z,63.54
2019-06-15T02:16:23.483Z,63.66
2019-06-15T02:17:26.940Z,63.72
2019-06-15T02:18:32.485Z,63.85
2019-06-15T02:19:35.947Z,63.77
2019-06-15T02:20:40.074Z,63.67
2019-06-15T02:21:43.592Z,63.82
2019-06-15T02:22:47.727Z,63.78
2019-06-15T02:23:51.179Z,63.87
2019-06-15T02:24:55.244Z,63.25
2019-06-15T02:25:58.751Z,62.04
2019-06-15T02:27:02.932Z,61.95
2019-06-15T02:28:06.544Z,60.82
2019-06-15T02:29:10.603Z,61.14
2019-06-15T02:30:14.324Z,61.25
2019-06-15T02:31:18.395Z,61.21
2019-06-15T02:32:21.857Z,61.38
2019-06-15T02:33:26.096Z,61.41
2019-06-15T02:34:29.625Z,61.00
2019-06-15T02:35:33.759Z,61.58
2019-06-15T02:36:37.303Z,61.84
2019-06-15T02:37:41.402Z,62.12
2019-06-15T02:38:44.937Z,62.17
2019-06-15T02:39:49.126Z,62.32
2019-06-15T02:40:52.680Z,62.53
2019-06-15T02:41:56.961Z,62.74
2019-06-15T02:43:00.575Z,62.89
2019-06-15T02:44:05.044Z,62.95
2019-06-15T02:45:08.838Z,62.88
2019-06-15T02:46:13.276Z,62.68
2019-06-15T02:47:16.893Z,61.83
2019-06-15T02:48:21.006Z,61.77
2019-06-15T02:49:24.601Z,61.68
2019-06-15T02:50:29.818Z,61.34
2019-06-15T02:51:33.818Z,61.25
2019-06-15T02:52:38.106Z,61.30
2019-06-15T02:53:41.567Z,61.22
2019-06-15T02:54:46.523Z,61.27
2019-06-15T02:55:51.148Z,61.34
2019-06-15T02:56:54.986Z,61.35
2019-06-15T02:57:58.454Z,60.94
2019-06-15T02:59:02.717Z,60.20
2019-06-15T03:00:08.048Z,59.76
2019-06-15T03:01:12.253Z,59.32
2019-06-15T03:02:15.853Z,59.34
2019-06-15T03:03:19.953Z,59.48
2019-06-15T03:04:23.478Z,59.64
2019-06-15T03:05:27.689Z,59.39
2019-06-15T03:06:31.431Z,59.37
2019-06-15T03:07:35.718Z,58.65
2019-06-15T03:08:39.323Z,57.40
2019-06-15T03:09:43.464Z,57.17
2019-06-15T03:10:46.983Z,56.33
2019-06-15T03:11:51.400Z,57.15
2019-06-15T03:12:54.939Z,57.76
2019-06-15T03:14:00.641Z,58.11
2019-06-15T03:15:06.538Z,58.15
2019-06-15T03:16:11.638Z,58.05
2019-06-15T03:17:15.141Z,57.82
2019-06-15T03:18:19.273Z,57.91
2019-06-15T03:19:22.961Z,57.79
2019-06-15T03:20:27.194Z,57.98
2019-06-15T03:21:30.735Z,57.97
2019-06-15T03:22:35.009Z,58.30
2019-06-15T03:23:38.548Z,58.11
2019-06-15T03:24:42.558Z,58.36
2019-06-15T03:25:46.118Z,58.36
2019-06-15T03:26:50.278Z,58.38
2019-06-15T03:27:53.681Z,58.34
2019-06-15T03:28:57.763Z,58.39
2019-06-15T03:30:01.371Z,58.43
2019-06-15T03:31:06.613Z,58.45
2019-06-15T03:32:10.126Z,58.42
2019-06-15T03:33:14.270Z,58.56
2019-06-15T03:34:17.778Z,58.86
2019-06-15T03:35:22.058Z,59.07
2019-06-15T03:36:25.734Z,59.26
2019-06-15T03:37:29.917Z,59.42
2019-06-15T03:38:33.594Z,59.53
2019-06-15T03:39:37.627Z,59.94
2019-06-15T03:40:42.502Z,60.20
2019-06-15T03:41:46.600Z,60.40
2019-06-15T03:42:50.227Z,60.58
2019-06-15T03:43:54.272Z,60.97
2019-06-15T03:44:57.713Z,61.44
2019-06-15T03:46:02.720Z,61.65
2019-06-15T03:47:06.416Z,61.97
2019-06-15T03:48:10.525Z,61.86
2019-06-15T03:49:14.226Z,61.83
2019-06-15T03:50:18.605Z,62.10
2019-06-15T03:51:22.151Z,62.55
2019-06-15T03:52:26.262Z,62.96
2019-06-15T03:53:29.781Z,63.63
2019-06-15T03:54:34.011Z,64.00
2019-06-15T03:55:40.437Z,64.30
2019-06-15T03:56:43.401Z,64.27
2019-06-15T03:57:46.938Z,64.19
2019-06-15T03:58:51.012Z,64.06
2019-06-15T03:59:54.678Z,63.78
2019-06-15T04:01:22.834Z,63.76
2019-06-15T04:02:26.304Z,63.59
2019-06-15T04:03:30.461Z,63.91
2019-06-15T04:04:34.689Z,64.21
2019-06-15T04:05:38.799Z,64.24
2019-06-15T04:06:42.403Z,64.61
2019-06-15T04:07:46.575Z,64.78
2019-06-15T04:08:50.166Z,64.79
2019-06-15T04:09:54.206Z,64.78
2019-06-15T04:10:57.705Z,64.67
2019-06-15T04:12:01.786Z,64.10
2019-06-15T04:13:05.730Z,63.96
2019-06-15T04:14:10.005Z,63.86
2019-06-15T04:15:13.624Z,63.78
2019-06-15T04:16:17.573Z,63.83
2019-06-15T04:17:22.244Z,63.65
2019-06-15T04:18:26.316Z,62.97
2019-06-15T04:19:29.821Z,62.58
2019-06-15T04:20:34.100Z,62.63
2019-06-15T04:21:37.753Z,62.58
2019-06-15T04:22:41.859Z,62.63
2019-06-15T04:23:45.658Z,62.82
2019-06-15T04:24:49.734Z,63.30
2019-06-15T04:25:53.256Z,63.68
2019-06-15T04:26:57.546Z,63.81
2019-06-15T04:28:01.104Z,64.07
2019-06-15T04:29:05.383Z,64.27
2019-06-15T04:30:09.284Z,64.47
2019-06-15T04:31:13.436Z,64.72
2019-06-15T04:32:16.961Z,64.65
2019-06-15T04:33:20.754Z,64.67
2019-06-15T04:34:24.297Z,64.83
2019-06-15T04:35:28.402Z,64.93
2019-06-15T04:36:31.881Z,64.94
2019-06-15T04:37:36.004Z,65.05
2019-06-15T04:38:39.526Z,65.36
2019-06-15T04:39:43.593Z,65.36
2019-06-15T04:40:47.057Z,65.17
2019-06-15T04:41:51.112Z,64.84
2019-06-15T04:42:54.693Z,64.71
2019-06-15T04:43:58.763Z,64.13
2019-06-15T04:45:02.371Z,63.91
2019-06-15T04:46:06.564Z,64.15
2019-06-15T04:47:10.128Z,64.24
2019-06-15T04:48:14.433Z,64.09
2019-06-15T04:49:18.060Z,64.03
2019-06-15T04:50:22.415Z,63.83
2019-06-15T04:51:25.873Z,63.68
2019-06-15T04:52:30.203Z,63.67
2019-06-15T04:53:34.417Z,63.38
2019-06-15T04:54:38.535Z,63.42
2019-06-15T04:55:42.046Z,63.35
2019-06-15T04:56:51.013Z,62.85
2019-06-15T04:57:51.378Z,62.64
2019-06-15T04:58:55.440Z,61.76
2019-06-15T04:59:58.974Z,61.24
2019-06-15T05:01:03.252Z,60.73
2019-06-15T05:02:06.837Z,60.67
2019-06-15T05:03:11.194Z,60.17
2019-06-15T05:04:14.653Z,60.04
2019-06-15T05:05:19.051Z,59.85
2019-06-15T05:06:22.507Z,59.78
2019-06-15T05:07:26.559Z,59.99
2019-06-15T05:08:30.056Z,59.67
2019-06-15T05:09:34.136Z,59.41
2019-06-15T05:10:37.646Z,58.22
2019-06-15T05:11:41.688Z,57.53
2019-06-15T05:12:45.217Z,56.78
2019-06-15T05:13:49.445Z,56.57
2019-06-15T05:14:52.962Z,56.33
2019-06-15T05:15:57.078Z,55.82
2019-06-15T05:17:00.666Z,55.59
2019-06-15T05:18:04.782Z,54.61
2019-06-15T05:19:08.410Z,54.34
2019-06-15T05:20:15.957Z,54.29
2019-06-15T05:21:19.547Z,54.27
2019-06-15T05:22:23.722Z,54.22
2019-06-15T05:23:27.296Z,54.22
2019-06-15T05:24:31.367Z,54.30
2019-06-15T05:25:34.907Z,54.46
2019-06-15T05:26:39.269Z,54.43
2019-06-15T05:27:42.861Z,54.49
2019-06-15T05:28:46.996Z,53.69
2019-06-15T05:29:50.648Z,53.68
2019-06-15T05:30:54.850Z,54.63
2019-06-15T05:31:58.524Z,55.24
2019-06-15T05:33:02.860Z,55.10
2019-06-15T05:34:06.418Z,55.03
2019-06-15T05:35:11.206Z,54.85
2019-06-15T05:36:14.788Z,54.98
2019-06-15T05:37:19.238Z,54.69
2019-06-15T05:38:22.909Z,54.74
2019-06-15T05:39:27.093Z,54.36
2019-06-15T05:40:30.603Z,54.35
2019-06-15T05:41:34.667Z,54.25
2019-06-15T05:42:38.264Z,54.06
2019-06-15T05:43:42.469Z,54.00
2019-06-15T05:44:46.210Z,54.01
2019-06-15T05:45:50.485Z,53.76
2019-06-15T05:46:54.170Z,53.38
2019-06-15T05:47:58.354Z,53.25
2019-06-15T05:49:01.960Z,52.85
2019-06-15T05:50:07.944Z,52.70
2019-06-15T05:51:11.691Z,52.22
2019-06-15T05:52:15.781Z,52.05
2019-06-15T05:53:19.273Z,51.68
2019-06-15T05:54:23.636Z,51.50
2019-06-15T05:55:27.481Z,51.50
2019-06-15T05:56:33.533Z,51.28
2019-06-15T05:57:37.157Z,51.30
2019-06-15T05:58:41.279Z,51.34
2019-06-15T05:59:44.859Z,51.46
2019-06-15T06:00:49.256Z,51.02
2019-06-15T06:01:52.871Z,51.28
2019-06-15T06:02:57.066Z,51.27
2019-06-15T06:04:00.667Z,51.29
2019-06-15T06:05:08.289Z,50.99
2019-06-15T06:06:11.932Z,50.82
2019-06-15T06:07:16.114Z,51.04
2019-06-15T06:08:19.844Z,50.60
2019-06-15T06:09:24.037Z,50.79
2019-06-15T06:10:27.728Z,50.78
2019-06-15T06:11:31.858Z,50.70
2019-06-15T06:12:35.785Z,50.83
2019-06-15T06:13:40.227Z,50.61
2019-06-15T06:14:43.741Z,50.78
2019-06-15T06:15:47.933Z,50.70
2019-06-15T06:16:51.443Z,50.19
2019-06-15T06:17:55.828Z,50.40
2019-06-15T06:18:59.747Z,50.56
2019-06-15T06:20:05.549Z,50.55
2019-06-15T06:21:09.627Z,50.51
2019-06-15T06:22:13.759Z,50.43
2019-06-15T06:23:17.548Z,50.55
2019-06-15T06:24:21.931Z,50.69
2019-06-15T06:25:27.557Z,50.29
2019-06-15T06:26:32.131Z,50.39
2019-06-15T06:27:36.897Z,50.57
2019-06-15T06:28:54.089Z,50.49
2019-06-15T06:29:46.627Z,50.33
2019-06-15T06:30:50.938Z,50.32
2019-06-15T06:31:54.617Z,50.38
2019-06-15T06:32:58.936Z,50.43
2019-06-15T06:34:02.873Z,50.26
2019-06-15T06:35:08.387Z,50.40
2019-06-15T06:36:11.969Z,50.16
2019-06-15T06:37:16.324Z,50.04
2019-06-15T06:38:20.695Z,50.27
2019-06-15T06:39:24.964Z,50.12
2019-06-15T06:40:28.699Z,50.13
2019-06-15T06:41:33.083Z,49.95
2019-06-15T06:42:36.929Z,50.01
2019-06-15T06:43:41.068Z,50.05
2019-06-15T06:44:44.573Z,50.08
2019-06-15T06:45:48.936Z,50.05
2019-06-15T06:46:52.591Z,50.23
2019-06-15T06:47:56.997Z,50.20
2019-06-15T06:49:00.597Z,49.93
2019-06-15T06:50:07.863Z,49.94
2019-06-15T06:51:11.512Z,49.73
2019-06-15T06:52:15.768Z,49.60
2019-06-15T06:53:19.487Z,49.66
2019-06-15T06:54:23.768Z,49.79
2019-06-15T06:55:27.369Z,50.02
2019-06-15T06:56:31.496Z,49.82
2019-06-15T06:57:35.041Z,49.62
2019-06-15T06:58:39.134Z,49.56
2019-06-15T06:59:42.731Z,49.69
2019-06-15T07:00:46.831Z,49.54
2019-06-15T07:01:50.315Z,49.04
2019-06-15T07:02:54.406Z,49.08
2019-06-15T07:03:57.888Z,48.83
2019-06-15T07:05:01.945Z,49.11
2019-06-15T07:06:05.746Z,49.06
2019-06-15T07:07:09.869Z,48.97
2019-06-15T07:08:13.408Z,48.93
2019-06-15T07:09:17.425Z,48.69
2019-06-15T07:10:20.975Z,48.34
2019-06-15T07:11:25.026Z,48.42
2019-06-15T07:12:28.538Z,47.88
2019-06-15T07:13:32.596Z,47.52
2019-06-15T07:14:36.070Z,47.70
2019-06-15T07:15:40.190Z,47.63
2019-06-15T07:16:43.738Z,47.63
2019-06-15T07:17:47.944Z,47.59
2019-06-15T07:18:51.511Z,47.56
2019-06-15T07:19:55.654Z,47.66
2019-06-15T07:20:59.167Z,47.85
2019-06-15T07:22:03.203Z,47.83
2019-06-15T07:23:06.644Z,47.87
2019-06-15T07:24:10.780Z,47.95
2019-06-15T07:25:14.478Z,47.76
2019-06-15T07:26:18.295Z,47.67
2019-06-15T07:27:21.730Z,47.15
2019-06-15T07:28:25.793Z,46.95
2019-06-15T07:29:29.290Z,46.77
2019-06-15T07:30:33.155Z,46.53
2019-06-15T07:31:36.577Z,46.48
2019-06-15T07:32:40.616Z,46.52
2019-06-15T07:33:44.215Z,46.43
2019-06-15T07:34:48.329Z,46.57
2019-06-15T07:35:51.807Z,46.90
2019-06-15T07:36:55.893Z,46.96
2019-06-15T07:37:59.406Z,46.67
2019-06-15T07:39:03.425Z,46.80
2019-06-15T07:40:07.621Z,46.65
2019-06-15T07:41:11.786Z,46.75
2019-06-15T07:42:15.376Z,47.02
2019-06-15T07:43:19.408Z,47.18
2019-06-15T07:44:22.925Z,47.16
2019-06-15T07:45:27.150Z,46.88
2019-06-15T07:46:30.764Z,46.91
2019-06-15T07:47:34.926Z,47.09
2019-06-15T07:48:38.376Z,47.22
2019-06-15T07:49:42.447Z,47.60
2019-06-15T07:50:45.945Z,46.84
2019-06-15T07:51:50.427Z,47.08
2019-06-15T07:52:54.020Z,47.06
2019-06-15T07:53:58.088Z,47.14
2019-06-15T07:55:01.592Z,46.49
2019-06-15T07:56:05.734Z,46.81
2019-06-15T07:57:09.169Z,46.79
2019-06-15T07:58:24.139Z,46.89
2019-06-15T07:59:18.561Z,47.00
2019-06-15T08:00:22.914Z,47.05
2019-06-15T08:01:26.401Z,47.28
2019-06-15T08:02:30.640Z,47.35
2019-06-15T08:03:34.158Z,47.44
2019-06-15T08:04:38.253Z,47.18
2019-06-15T08:05:41.789Z,46.99
2019-06-15T08:06:45.821Z,47.22
2019-06-15T08:07:49.326Z,47.52
2019-06-15T08:08:53.356Z,47.57
2019-06-15T08:09:56.823Z,47.66
2019-06-15T08:11:00.865Z,47.68
2019-06-15T08:12:04.638Z,47.49
2019-06-15T08:13:08.751Z,47.79
2019-06-15T08:14:12.235Z,47.57
2019-06-15T08:15:16.447Z,47.37
2019-06-15T08:16:19.937Z,47.55
2019-06-15T08:17:24.057Z,47.67
2019-06-15T08:18:27.597Z,47.62
2019-06-15T08:19:31.671Z,47.27
2019-06-15T08:20:35.450Z,47.22
2019-06-15T08:21:39.587Z,47.45
2019-06-15T08:22:43.094Z,47.57
2019-06-15T08:23:47.118Z,47.61
2019-06-15T08:24:50.590Z,47.33
2019-06-15T08:25:54.822Z,47.37
2019-06-15T08:26:58.321Z,47.27
2019-06-15T08:28:02.498Z,47.01
2019-06-15T08:29:05.949Z,46.99
2019-06-15T08:30:12.154Z,46.98
2019-06-15T08:31:15.718Z,47.10
2019-06-15T08:32:19.808Z,47.12
2019-06-15T08:33:23.271Z,47.15
2019-06-15T08:34:27.270Z,47.12
2019-06-15T08:35:30.885Z,47.12
2019-06-15T08:36:35.043Z,47.17
2019-06-15T08:37:38.636Z,47.47
2019-06-15T08:38:42.654Z,47.79
2019-06-15T08:39:46.131Z,47.61
2019-06-15T08:40:50.253Z,47.76
2019-06-15T08:41:56.801Z,47.85
2019-06-15T08:42:59.500Z,47.69
2019-06-15T08:44:03.043Z,47.65
2019-06-15T08:45:09.424Z,47.92
2019-06-15T08:46:12.882Z,48.04
2019-06-15T08:47:17.092Z,48.08
2019-06-15T08:48:20.686Z,48.08
2019-06-15T08:49:25.698Z,47.82
2019-06-15T08:50:29.257Z,47.97
2019-06-15T08:51:33.454Z,48.06
2019-06-15T08:52:37.047Z,47.85
2019-06-15T08:53:41.079Z,48.04
2019-06-15T08:54:44.527Z,48.25
2019-06-15T08:55:48.601Z,48.38
2019-06-15T08:56:52.108Z,48.32
2019-06-15T08:57:56.200Z,48.14
2019-06-15T08:58:59.779Z,48.12
2019-06-15T09:00:05.857Z,48.28
2019-06-15T09:01:09.477Z,48.15
2019-06-15T09:02:13.500Z,48.32
2019-06-15T09:03:16.936Z,48.22
2019-06-15T09:04:21.104Z,48.31
2019-06-15T09:05:24.714Z,47.75
2019-06-15T09:06:28.835Z,47.81
2019-06-15T09:07:32.294Z,47.63
2019-06-15T09:08:36.423Z,48.10
2019-06-15T09:09:39.889Z,48.13
2019-06-15T09:10:44.066Z,47.98
2019-06-15T09:11:47.590Z,48.14
2019-06-15T09:12:51.682Z,48.34
2019-06-15T09:13:55.118Z,48.35
2019-06-15T09:14:59.171Z,48.38
2019-06-15T09:16:02.723Z,48.42
2019-06-15T09:17:06.849Z,48.42
2019-06-15T09:18:10.352Z,48.15
2019-06-15T09:19:14.442Z,48.09
2019-06-15T09:20:18.026Z,47.73
2019-06-15T09:21:22.152Z,47.90
2019-06-15T09:22:25.637Z,47.68
2019-06-15T09:23:29.750Z,47.46
2019-06-15T09:24:33.255Z,46.96
2019-06-15T09:25:37.285Z,46.95
2019-06-15T09:26:40.946Z,46.92
2019-06-15T09:27:45.104Z,46.65
2019-06-15T09:28:48.557Z,46.57
2019-06-15T09:29:52.597Z,46.60
2019-06-15T09:30:56.083Z,46.52
2019-06-15T09:32:00.070Z,46.57
2019-06-15T09:33:03.590Z,46.61
2019-06-15T09:34:18.390Z,46.59
2019-06-15T09:35:12.918Z,46.62
2019-06-15T09:36:16.991Z,46.79
2019-06-15T09:37:20.530Z,46.67
2019-06-15T09:38:24.547Z,46.53
2019-06-15T09:39:27.994Z,46.77
2019-06-15T09:40:32.080Z,46.93
2019-06-15T09:41:35.891Z,46.81
2019-06-15T09:42:39.978Z,46.24
2019-06-15T09:43:43.557Z,46.19
2019-06-15T09:44:47.628Z,46.32
2019-06-15T09:45:51.176Z,46.21
2019-06-15T09:46:59.749Z,46.40
2019-06-15T09:48:03.332Z,46.59
2019-06-15T09:49:07.440Z,46.18
2019-06-15T09:50:11.014Z,46.01
2019-06-15T09:51:15.121Z,46.09
2019-06-15T09:52:18.725Z,46.18
2019-06-15T09:53:22.862Z,46.10
2019-06-15T09:54:28.119Z,46.11
2019-06-15T09:55:32.213Z,46.06
2019-06-15T09:56:35.725Z,46.10
2019-06-15T09:57:39.787Z,46.10
2019-06-15T09:58:43.296Z,45.97
2019-06-15T09:59:47.549Z,46.07
2019-06-15T10:00:51.070Z,46.29
2019-06-15T10:01:55.175Z,45.98
2019-06-15T10:02:58.708Z,46.23
2019-06-15T10:04:02.870Z,46.71
2019-06-15T10:05:07.249Z,46.56
2019-06-15T10:06:11.821Z,46.51
2019-06-15T10:07:15.408Z,46.19
2019-06-15T10:08:19.534Z,46.06
2019-06-15T10:09:23.080Z,46.46
2019-06-15T10:10:27.170Z,46.73
2019-06-15T10:11:30.672Z,46.58
2019-06-15T10:12:34.830Z,46.59
2019-06-15T10:13:38.368Z,46.69
2019-06-15T10:14:42.465Z,46.68
2019-06-15T10:15:45.969Z,46.82
2019-06-15T10:16:49.884Z,46.86
2019-06-15T10:17:53.423Z,46.89
2019-06-15T10:18:57.585Z,46.63
2019-06-15T10:20:01.098Z,46.18
2019-06-15T10:21:05.299Z,46.23
2019-06-15T10:22:08.896Z,46.22
2019-06-15T10:23:13.107Z,46.08
2019-06-15T10:24:16.689Z,46.29
2019-06-15T10:25:20.784Z,46.43
2019-06-15T10:26:24.313Z,46.65
2019-06-15T10:27:28.333Z,46.58
2019-06-15T10:28:31.872Z,46.73
2019-06-15T10:29:41.953Z,46.60
2019-06-15T10:30:41.056Z,46.64
2019-06-15T10:31:45.086Z,46.29
2019-06-15T10:32:48.592Z,46.28
2019-06-15T10:33:52.667Z,46.32
2019-06-15T10:34:56.188Z,46.19
2019-06-15T10:36:00.292Z,46.28
2019-06-15T10:37:03.899Z,46.33
2019-06-15T10:38:08.022Z,46.59
2019-06-15T10:39:11.571Z,46.32
2019-06-15T10:40:16.128Z,46.29
2019-06-15T10:41:19.564Z,46.02
2019-06-15T10:42:23.669Z,46.05
2019-06-15T10:43:27.164Z,46.01
2019-06-15T10:44:31.294Z,46.45
2019-06-15T10:45:34.838Z,46.47
2019-06-15T10:46:38.869Z,46.56
2019-06-15T10:47:42.391Z,46.73
2019-06-15T10:48:46.453Z,46.62
2019-06-15T10:49:50.060Z,46.22
2019-06-15T10:50:54.259Z,46.30
2019-06-15T10:51:58.096Z,46.53
2019-06-15T10:53:04.333Z,46.35
2019-06-15T10:54:07.529Z,46.35
2019-06-15T10:55:12.676Z,46.46
2019-06-15T10:56:16.123Z,46.04
2019-06-15T10:57:20.317Z,45.88
2019-06-15T10:58:23.823Z,45.69
2019-06-15T10:59:28.067Z,45.64
2019-06-15T11:00:31.829Z,45.82
2019-06-15T11:01:36.033Z,45.87
2019-06-15T11:02:39.677Z,45.95
2019-06-15T11:03:43.972Z,45.98
2019-06-15T11:04:47.715Z,45.92
2019-06-15T11:05:54.884Z,45.71
2019-06-15T11:06:58.338Z,45.71
2019-06-15T11:08:02.427Z,45.38
2019-06-15T11:09:08.144Z,45.29
2019-06-15T11:10:15.008Z,45.01
2019-06-15T11:11:23.198Z,45.54
2019-06-15T11:12:27.412Z,45.22
2019-06-15T11:13:30.969Z,45.18
2019-06-15T11:14:35.251Z,45.12
2019-06-15T11:15:39.559Z,45.02
2019-06-15T11:16:43.833Z,44.61
2019-06-15T11:17:47.570Z,44.25
2019-06-15T11:18:51.719Z,43.98
2019-06-15T11:19:55.154Z,43.87
2019-06-15T11:20:59.340Z,43.93
2019-06-15T11:22:02.884Z,43.56
2019-06-15T11:23:07.183Z,43.70
2019-06-15T11:24:10.858Z,44.65
2019-06-15T11:25:14.985Z,43.29
2019-06-15T11:26:18.510Z,43.83
2019-06-15T11:27:22.793Z,42.70
2019-06-15T11:28:26.504Z,43.42
2019-06-15T11:29:30.695Z,43.86
2019-06-15T11:30:34.346Z,44.05
2019-06-15T11:31:38.398Z,43.83
2019-06-15T11:32:42.010Z,44.24
2019-06-15T11:33:46.196Z,44.17
2019-06-15T11:34:49.722Z,44.17
2019-06-15T11:35:53.779Z,44.06
2019-06-15T11:36:57.370Z,43.86
2019-06-15T11:38:01.424Z,43.71
2019-06-15T11:39:06.699Z,43.67
2019-06-15T11:40:11.882Z,43.57
2019-06-15T11:41:15.463Z,43.10
2019-06-15T11:42:19.650Z,43.35
2019-06-15T11:43:23.399Z,43.01
2019-06-15T11:44:27.484Z,43.12
2019-06-15T11:45:31.096Z,43.74
2019-06-15T11:46:35.447Z,43.14
2019-06-15T11:47:39.052Z,44.29
2019-06-15T11:48:43.217Z,43.33
2019-06-15T11:49:46.743Z,43.34
2019-06-15T11:50:50.915Z,43.05
2019-06-15T11:51:54.656Z,42.97
2019-06-15T11:52:58.785Z,42.88
2019-06-15T11:54:02.372Z,42.70
2019-06-15T11:55:07.400Z,42.38
2019-06-15T11:56:11.538Z,42.47
2019-06-15T11:57:16.364Z,42.35
2019-06-15T11:58:20.043Z,42.55
2019-06-15T11:59:24.162Z,42.47
2019-06-15T12:00:31.822Z,42.33
2019-06-15T12:01:36.190Z,42.20
2019-06-15T12:02:39.732Z,42.20
2019-06-15T12:03:44.129Z,41.82
2019-06-15T12:04:58.091Z,41.40
2019-06-15T12:05:53.499Z,41.40
2019-06-15T12:06:57.085Z,42.28
2019-06-15T12:08:01.370Z,41.64
2019-06-15T12:09:07.332Z,41.88
2019-06-15T12:10:11.638Z,41.88
2019-06-15T12:11:15.392Z,41.45
2019-06-15T12:12:19.786Z,41.27
2019-06-15T12:13:23.392Z,41.29
2019-06-15T12:14:27.460Z,41.29
2019-06-15T12:15:31.165Z,41.21
2019-06-15T12:16:35.429Z,41.30
2019-06-15T12:17:43.589Z,41.61
2019-06-15T12:18:47.731Z,41.19
2019-06-15T12:19:51.484Z,41.19
2019-06-15T12:20:55.762Z,41.34
2019-06-15T12:22:00.291Z,40.84
2019-06-15T12:23:04.478Z,41.93
2019-06-15T12:24:08.066Z,41.93
2019-06-15T12:25:12.548Z,40.81
2019-06-15T12:26:16.127Z,40.07
2019-06-15T12:27:20.444Z,40.88
2019-06-15T12:28:24.101Z,41.44
2019-06-15T12:29:28.270Z,41.44
2019-06-15T12:30:46.696Z,41.25
2019-06-15T12:31:43.803Z,41.15
2019-06-15T12:32:47.485Z,41.01
2019-06-15T12:33:51.722Z,41.01
2019-06-15T12:34:55.430Z,41.38
2019-06-15T12:35:59.518Z,40.92
2019-06-15T12:37:03.119Z,40.12
2019-06-15T12:38:07.334Z,40.40
2019-06-15T12:39:10.999Z,40.40
2019-06-15T12:40:20.196Z,40.07
2019-06-15T12:41:23.756Z,39.08
2019-06-15T12:42:27.814Z,39.08
2019-06-15T12:43:31.258Z,39.44
2019-06-15T12:44:35.289Z,39.60
2019-06-15T12:45:38.832Z,39.70
2019-06-15T12:46:42.880Z,39.40
2019-06-15T12:47:46.318Z,39.40
2019-06-15T12:48:50.338Z,39.28
2019-06-15T12:49:53.776Z,39.21
2019-06-15T12:50:57.877Z,39.85
2019-06-15T12:52:01.409Z,39.85
2019-06-15T12:53:05.521Z,38.81
2019-06-15T12:54:09.028Z,39.01
2019-06-15T12:55:13.289Z,39.72
2019-06-15T12:56:16.793Z,39.72
2019-06-15T12:57:20.910Z,40.11
2019-06-15T12:58:24.418Z,40.02
2019-06-15T12:59:28.191Z,39.82
2019-06-15T13:00:36.642Z,39.82
2019-06-15T13:01:40.697Z,40.12
2019-06-15T13:02:44.140Z,40.09
2019-06-15T13:03:48.169Z,40.09
2019-06-15T13:04:51.609Z,40.29
2019-06-15T13:05:55.718Z,40.40
2019-06-15T13:06:59.173Z,39.58
2019-06-15T13:08:03.364Z,39.26
2019-06-15T13:09:08.256Z,39.08
2019-06-15T13:10:13.726Z,38.93
2019-06-15T13:11:17.568Z,39.64
2019-06-15T13:12:21.779Z,39.64
2019-06-15T13:13:25.224Z,39.51
2019-06-15T13:14:29.452Z,39.94
2019-06-15T13:15:33.118Z,40.58
2019-06-15T13:16:39.898Z,41.08
2019-06-15T13:17:43.556Z,41.04
2019-06-15T13:18:47.615Z,41.04
2019-06-15T13:19:51.184Z,41.23
2019-06-15T13:20:55.245Z,41.92
2019-06-15T13:21:58.685Z,41.33
2019-06-15T13:23:02.734Z,41.33
2019-06-15T13:24:06.236Z,41.84
2019-06-15T13:25:10.609Z,41.84
2019-06-15T13:26:14.107Z,42.40
2019-06-15T13:27:18.299Z,42.40
2019-06-15T13:28:21.924Z,41.97
2019-06-15T13:29:26.016Z,41.97
2019-06-15T13:30:29.526Z,41.97
2019-06-15T13:31:33.692Z,41.97
2019-06-15T13:32:37.166Z,42.42
2019-06-15T13:33:41.331Z,43.14
2019-06-15T13:34:44.767Z,43.14
2019-06-15T13:35:48.856Z,43.16
2019-06-15T13:36:52.293Z,42.82
2019-06-15T13:37:56.354Z,42.83
2019-06-15T13:38:59.793Z,43.12
2019-06-15T13:40:05.321Z,43.36
2019-06-15T13:41:08.781Z,43.30
2019-06-15T13:42:12.883Z,43.21
2019-06-15T13:43:16.344Z,43.15
2019-06-15T13:44:20.389Z,43.53
2019-06-15T13:45:24.105Z,43.45